sensor_id;sensor_type;location;lat;lon;timestamp;P1;durP1;ratioP1;P2;durP2;ratioP2
11348;SDS011;5729;43.570;27.826;2023-05-07T00:00:09;6.20;;;3.30;;
11348;SDS011;5729;43.570;27.826;2023-05-07T00:02:36;8.02;;;3.22;;
11348;SDS011;5729;43.570;27.826;2023-05-07T00:05:02;6.90;;;3.30;;
11348;SDS011;5729;43.570;27.826;2023-05-07T00:07:28;4.47;;;3.20;;
11348;SDS011;5729;43.570;27.826;2023-05-07T00:09:54;5.72;;;3.25;;
11348;SDS011;5729;43.570;27.826;2023-05-07T00:12:19;7.80;;;3.38;;
11348;SDS011;5729;43.570;27.826;2023-05-07T00:14:45;6.35;;;2.90;;
11348;SDS011;5729;43.570;27.826;2023-05-07T00:17:10;4.78;;;3.50;;
11348;SDS011;5729;43.570;27.826;2023-05-07T00:19:36;6.05;;;3.40;;
11348;SDS011;5729;43.570;27.826;2023-05-07T00:22:01;5.78;;;2.72;;
11348;SDS011;5729;43.570;27.826;2023-05-07T00:24:27;3.30;;;3.00;;
11348;SDS011;5729;43.570;27.826;2023-05-07T00:26:52;5.35;;;3.40;;
11348;SDS011;5729;43.570;27.826;2023-05-07T00:29:18;6.03;;;3.13;;
11348;SDS011;5729;43.570;27.826;2023-05-07T00:31:43;4.40;;;3.53;;
11348;SDS011;5729;43.570;27.826;2023-05-07T00:34:09;3.90;;;2.95;;
11348;SDS011;5729;43.570;27.826;2023-05-07T00:36:34;6.18;;;3.50;;
11348;SDS011;5729;43.570;27.826;2023-05-07T00:39:00;3.63;;;3.00;;
11348;SDS011;5729;43.570;27.826;2023-05-07T00:41:28;5.10;;;3.17;;
11348;SDS011;5729;43.570;27.826;2023-05-07T00:43:53;6.68;;;3.20;;
11348;SDS011;5729;43.570;27.826;2023-05-07T00:46:20;4.32;;;2.95;;
11348;SDS011;5729;43.570;27.826;2023-05-07T00:48:46;4.72;;;3.38;;
11348;SDS011;5729;43.570;27.826;2023-05-07T00:51:11;5.63;;;2.78;;
11348;SDS011;5729;43.570;27.826;2023-05-07T00:53:37;4.03;;;2.88;;
11348;SDS011;5729;43.570;27.826;2023-05-07T00:56:04;4.88;;;2.85;;
11348;SDS011;5729;43.570;27.826;2023-05-07T00:58:31;7.60;;;3.67;;
11348;SDS011;5729;43.570;27.826;2023-05-07T01:00:57;3.72;;;2.75;;
11348;SDS011;5729;43.570;27.826;2023-05-07T01:03:23;5.25;;;2.70;;
11348;SDS011;5729;43.570;27.826;2023-05-07T01:05:48;4.28;;;2.80;;
11348;SDS011;5729;43.570;27.826;2023-05-07T01:08:15;6.50;;;3.05;;
11348;SDS011;5729;43.570;27.826;2023-05-07T01:10:42;4.53;;;3.20;;
11348;SDS011;5729;43.570;27.826;2023-05-07T01:13:09;4.32;;;3.17;;
11348;SDS011;5729;43.570;27.826;2023-05-07T01:15:35;4.22;;;3.10;;
11348;SDS011;5729;43.570;27.826;2023-05-07T01:18:01;2.92;;;2.67;;
11348;SDS011;5729;43.570;27.826;2023-05-07T01:20:27;5.75;;;2.97;;
11348;SDS011;5729;43.570;27.826;2023-05-07T01:22:53;5.50;;;3.00;;
11348;SDS011;5729;43.570;27.826;2023-05-07T01:25:20;5.50;;;3.10;;
11348;SDS011;5729;43.570;27.826;2023-05-07T01:27:45;3.58;;;2.78;;
11348;SDS011;5729;43.570;27.826;2023-05-07T01:30:11;4.72;;;3.03;;
11348;SDS011;5729;43.570;27.826;2023-05-07T01:32:39;3.60;;;2.80;;
11348;SDS011;5729;43.570;27.826;2023-05-07T01:35:09;5.05;;;2.80;;
11348;SDS011;5729;43.570;27.826;2023-05-07T01:37:37;5.43;;;3.35;;
11348;SDS011;5729;43.570;27.826;2023-05-07T01:40:04;3.75;;;2.28;;
11348;SDS011;5729;43.570;27.826;2023-05-07T01:42:32;4.28;;;2.65;;
11348;SDS011;5729;43.570;27.826;2023-05-07T01:44:58;4.63;;;2.63;;
11348;SDS011;5729;43.570;27.826;2023-05-07T01:47:24;3.70;;;2.60;;
11348;SDS011;5729;43.570;27.826;2023-05-07T01:49:50;4.57;;;2.75;;
11348;SDS011;5729;43.570;27.826;2023-05-07T01:52:16;3.22;;;2.67;;
11348;SDS011;5729;43.570;27.826;2023-05-07T01:54:41;3.97;;;3.03;;
11348;SDS011;5729;43.570;27.826;2023-05-07T01:57:07;3.30;;;3.00;;
11348;SDS011;5729;43.570;27.826;2023-05-07T01:59:33;5.68;;;3.00;;
11348;SDS011;5729;43.570;27.826;2023-05-07T02:01:58;5.07;;;2.92;;
11348;SDS011;5729;43.570;27.826;2023-05-07T02:04:23;5.28;;;2.92;;
11348;SDS011;5729;43.570;27.826;2023-05-07T02:06:49;4.45;;;2.88;;
11348;SDS011;5729;43.570;27.826;2023-05-07T02:09:15;2.83;;;2.55;;
11348;SDS011;5729;43.570;27.826;2023-05-07T02:11:41;6.75;;;2.83;;
11348;SDS011;5729;43.570;27.826;2023-05-07T02:14:06;4.57;;;2.78;;
11348;SDS011;5729;43.570;27.826;2023-05-07T02:16:31;2.70;;;2.50;;
11348;SDS011;5729;43.570;27.826;2023-05-07T02:18:57;3.80;;;2.78;;
11348;SDS011;5729;43.570;27.826;2023-05-07T02:21:23;5.50;;;2.55;;
11348;SDS011;5729;43.570;27.826;2023-05-07T02:23:49;3.17;;;2.85;;
11348;SDS011;5729;43.570;27.826;2023-05-07T02:26:15;3.33;;;2.80;;
11348;SDS011;5729;43.570;27.826;2023-05-07T02:28:41;4.03;;;2.80;;
11348;SDS011;5729;43.570;27.826;2023-05-07T02:31:06;3.60;;;2.88;;
11348;SDS011;5729;43.570;27.826;2023-05-07T02:33:31;8.02;;;3.25;;
11348;SDS011;5729;43.570;27.826;2023-05-07T02:36:04;5.20;;;2.88;;
11348;SDS011;5729;43.570;27.826;2023-05-07T02:38:31;3.65;;;2.75;;
11348;SDS011;5729;43.570;27.826;2023-05-07T02:40:57;7.88;;;3.08;;
11348;SDS011;5729;43.570;27.826;2023-05-07T02:43:22;5.97;;;2.90;;
11348;SDS011;5729;43.570;27.826;2023-05-07T02:45:47;5.22;;;2.88;;
11348;SDS011;5729;43.570;27.826;2023-05-07T02:48:13;4.15;;;2.95;;
11348;SDS011;5729;43.570;27.826;2023-05-07T02:50:38;4.72;;;3.20;;
11348;SDS011;5729;43.570;27.826;2023-05-07T02:53:04;3.30;;;2.80;;
11348;SDS011;5729;43.570;27.826;2023-05-07T02:55:29;5.25;;;3.03;;
11348;SDS011;5729;43.570;27.826;2023-05-07T02:57:55;4.32;;;2.70;;
11348;SDS011;5729;43.570;27.826;2023-05-07T03:00:20;3.35;;;2.92;;
11348;SDS011;5729;43.570;27.826;2023-05-07T03:02:46;6.03;;;3.00;;
11348;SDS011;5729;43.570;27.826;2023-05-07T03:05:12;4.43;;;3.30;;
11348;SDS011;5729;43.570;27.826;2023-05-07T03:07:39;6.72;;;3.28;;
11348;SDS011;5729;43.570;27.826;2023-05-07T03:10:04;15.00;;;6.82;;
11348;SDS011;5729;43.570;27.826;2023-05-07T03:12:31;7.18;;;5.15;;
11348;SDS011;5729;43.570;27.826;2023-05-07T03:14:56;6.25;;;3.92;;
11348;SDS011;5729;43.570;27.826;2023-05-07T03:17:22;4.88;;;3.50;;
11348;SDS011;5729;43.570;27.826;2023-05-07T03:19:47;6.93;;;3.58;;
11348;SDS011;5729;43.570;27.826;2023-05-07T03:22:13;4.95;;;3.17;;
11348;SDS011;5729;43.570;27.826;2023-05-07T03:24:39;4.97;;;2.78;;
11348;SDS011;5729;43.570;27.826;2023-05-07T03:27:04;8.50;;;3.22;;
11348;SDS011;5729;43.570;27.826;2023-05-07T03:29:29;3.65;;;3.25;;
11348;SDS011;5729;43.570;27.826;2023-05-07T03:31:55;6.25;;;3.00;;
11348;SDS011;5729;43.570;27.826;2023-05-07T03:34:20;8.73;;;3.67;;
11348;SDS011;5729;43.570;27.826;2023-05-07T03:36:50;6.03;;;3.53;;
11348;SDS011;5729;43.570;27.826;2023-05-07T03:39:16;5.97;;;3.00;;
11348;SDS011;5729;43.570;27.826;2023-05-07T03:41:41;4.25;;;3.15;;
11348;SDS011;5729;43.570;27.826;2023-05-07T03:44:06;4.88;;;3.00;;
11348;SDS011;5729;43.570;27.826;2023-05-07T03:46:32;8.65;;;2.60;;
11348;SDS011;5729;43.570;27.826;2023-05-07T03:48:58;7.55;;;3.25;;
11348;SDS011;5729;43.570;27.826;2023-05-07T03:51:24;5.20;;;2.88;;
11348;SDS011;5729;43.570;27.826;2023-05-07T03:53:50;6.60;;;2.95;;
11348;SDS011;5729;43.570;27.826;2023-05-07T03:56:18;7.22;;;3.08;;
11348;SDS011;5729;43.570;27.826;2023-05-07T03:58:44;3.88;;;3.13;;
11348;SDS011;5729;43.570;27.826;2023-05-07T04:01:09;4.35;;;2.78;;
11348;SDS011;5729;43.570;27.826;2023-05-07T04:03:35;7.97;;;3.28;;
11348;SDS011;5729;43.570;27.826;2023-05-07T04:06:00;6.75;;;2.80;;
11348;SDS011;5729;43.570;27.826;2023-05-07T04:08:26;4.38;;;3.15;;
11348;SDS011;5729;43.570;27.826;2023-05-07T04:10:58;4.72;;;3.15;;
11348;SDS011;5729;43.570;27.826;2023-05-07T04:13:24;5.93;;;3.20;;
11348;SDS011;5729;43.570;27.826;2023-05-07T04:15:55;7.10;;;3.40;;
11348;SDS011;5729;43.570;27.826;2023-05-07T04:18:21;6.72;;;3.28;;
11348;SDS011;5729;43.570;27.826;2023-05-07T04:20:47;6.18;;;3.25;;
11348;SDS011;5729;43.570;27.826;2023-05-07T04:23:14;10.05;;;3.47;;
11348;SDS011;5729;43.570;27.826;2023-05-07T04:25:39;5.00;;;3.30;;
11348;SDS011;5729;43.570;27.826;2023-05-07T04:28:05;5.18;;;3.40;;
11348;SDS011;5729;43.570;27.826;2023-05-07T04:30:31;4.57;;;3.22;;
11348;SDS011;5729;43.570;27.826;2023-05-07T04:32:56;4.88;;;3.38;;
11348;SDS011;5729;43.570;27.826;2023-05-07T04:35:22;6.32;;;2.83;;
11348;SDS011;5729;43.570;27.826;2023-05-07T04:37:47;5.05;;;2.78;;
11348;SDS011;5729;43.570;27.826;2023-05-07T04:40:13;5.72;;;2.90;;
11348;SDS011;5729;43.570;27.826;2023-05-07T04:42:38;8.13;;;3.00;;
11348;SDS011;5729;43.570;27.826;2023-05-07T04:45:04;6.72;;;3.10;;
11348;SDS011;5729;43.570;27.826;2023-05-07T04:47:30;11.50;;;3.72;;
11348;SDS011;5729;43.570;27.826;2023-05-07T04:49:57;7.05;;;3.17;;
11348;SDS011;5729;43.570;27.826;2023-05-07T04:52:22;8.30;;;3.22;;
11348;SDS011;5729;43.570;27.826;2023-05-07T04:54:48;8.00;;;3.05;;
11348;SDS011;5729;43.570;27.826;2023-05-07T04:57:13;4.75;;;3.13;;
11348;SDS011;5729;43.570;27.826;2023-05-07T04:59:39;7.45;;;2.97;;
11348;SDS011;5729;43.570;27.826;2023-05-07T05:02:04;7.40;;;3.50;;
11348;SDS011;5729;43.570;27.826;2023-05-07T05:04:30;6.00;;;2.55;;
11348;SDS011;5729;43.570;27.826;2023-05-07T05:06:56;9.20;;;2.92;;
11348;SDS011;5729;43.570;27.826;2023-05-07T05:09:21;8.23;;;2.95;;
11348;SDS011;5729;43.570;27.826;2023-05-07T05:11:47;6.15;;;3.28;;
11348;SDS011;5729;43.570;27.826;2023-05-07T05:14:12;6.00;;;2.80;;
11348;SDS011;5729;43.570;27.826;2023-05-07T05:16:38;7.13;;;3.95;;
11348;SDS011;5729;43.570;27.826;2023-05-07T05:19:03;9.10;;;2.65;;
11348;SDS011;5729;43.570;27.826;2023-05-07T05:21:28;7.40;;;2.95;;
11348;SDS011;5729;43.570;27.826;2023-05-07T05:23:54;5.38;;;3.05;;
11348;SDS011;5729;43.570;27.826;2023-05-07T05:26:19;4.68;;;2.40;;
11348;SDS011;5729;43.570;27.826;2023-05-07T05:28:46;6.38;;;2.28;;
11348;SDS011;5729;43.570;27.826;2023-05-07T05:31:11;6.20;;;2.55;;
11348;SDS011;5729;43.570;27.826;2023-05-07T05:33:37;2.60;;;1.75;;
11348;SDS011;5729;43.570;27.826;2023-05-07T05:36:02;4.72;;;2.30;;
11348;SDS011;5729;43.570;27.826;2023-05-07T05:38:28;6.00;;;2.47;;
11348;SDS011;5729;43.570;27.826;2023-05-07T05:40:54;8.20;;;2.35;;
11348;SDS011;5729;43.570;27.826;2023-05-07T05:43:19;8.43;;;2.60;;
11348;SDS011;5729;43.570;27.826;2023-05-07T05:45:45;9.27;;;2.47;;
11348;SDS011;5729;43.570;27.826;2023-05-07T05:48:10;4.95;;;2.45;;
11348;SDS011;5729;43.570;27.826;2023-05-07T05:50:36;3.60;;;2.13;;
11348;SDS011;5729;43.570;27.826;2023-05-07T05:53:02;4.18;;;1.90;;
11348;SDS011;5729;43.570;27.826;2023-05-07T05:55:28;25.13;;;2.45;;
11348;SDS011;5729;43.570;27.826;2023-05-07T05:57:53;6.10;;;2.22;;
11348;SDS011;5729;43.570;27.826;2023-05-07T06:00:19;4.65;;;2.10;;
11348;SDS011;5729;43.570;27.826;2023-05-07T06:02:47;5.45;;;2.17;;
11348;SDS011;5729;43.570;27.826;2023-05-07T06:05:13;3.63;;;2.10;;
11348;SDS011;5729;43.570;27.826;2023-05-07T06:07:38;4.15;;;2.22;;
11348;SDS011;5729;43.570;27.826;2023-05-07T06:10:04;3.25;;;2.40;;
11348;SDS011;5729;43.570;27.826;2023-05-07T06:12:30;6.57;;;2.00;;
11348;SDS011;5729;43.570;27.826;2023-05-07T06:14:56;3.35;;;2.30;;
11348;SDS011;5729;43.570;27.826;2023-05-07T06:17:21;6.28;;;2.00;;
11348;SDS011;5729;43.570;27.826;2023-05-07T06:19:47;4.07;;;2.00;;
11348;SDS011;5729;43.570;27.826;2023-05-07T06:22:12;4.22;;;2.05;;
11348;SDS011;5729;43.570;27.826;2023-05-07T06:24:38;5.47;;;2.17;;
11348;SDS011;5729;43.570;27.826;2023-05-07T06:27:03;4.40;;;2.03;;
11348;SDS011;5729;43.570;27.826;2023-05-07T06:29:28;4.63;;;2.00;;
11348;SDS011;5729;43.570;27.826;2023-05-07T06:31:56;3.05;;;1.83;;
11348;SDS011;5729;43.570;27.826;2023-05-07T06:34:21;8.40;;;2.20;;
11348;SDS011;5729;43.570;27.826;2023-05-07T06:36:47;5.55;;;2.10;;
11348;SDS011;5729;43.570;27.826;2023-05-07T06:39:12;1.83;;;1.73;;
11348;SDS011;5729;43.570;27.826;2023-05-07T06:41:38;6.25;;;1.98;;
11348;SDS011;5729;43.570;27.826;2023-05-07T06:44:04;4.13;;;2.10;;
11348;SDS011;5729;43.570;27.826;2023-05-07T06:46:29;5.30;;;2.25;;
11348;SDS011;5729;43.570;27.826;2023-05-07T06:48:55;4.25;;;2.20;;
11348;SDS011;5729;43.570;27.826;2023-05-07T06:51:21;6.30;;;2.25;;
11348;SDS011;5729;43.570;27.826;2023-05-07T06:53:47;3.20;;;1.80;;
11348;SDS011;5729;43.570;27.826;2023-05-07T06:56:13;4.88;;;2.03;;
11348;SDS011;5729;43.570;27.826;2023-05-07T06:58:38;3.53;;;2.10;;
11348;SDS011;5729;43.570;27.826;2023-05-07T07:01:04;3.00;;;1.95;;
11348;SDS011;5729;43.570;27.826;2023-05-07T07:03:29;1.83;;;1.73;;
11348;SDS011;5729;43.570;27.826;2023-05-07T07:05:55;3.72;;;2.03;;
11348;SDS011;5729;43.570;27.826;2023-05-07T07:08:21;9.73;;;2.00;;
11348;SDS011;5729;43.570;27.826;2023-05-07T07:10:47;5.97;;;2.33;;
11348;SDS011;5729;43.570;27.826;2023-05-07T07:13:13;6.25;;;2.05;;
11348;SDS011;5729;43.570;27.826;2023-05-07T07:15:39;4.25;;;1.90;;
11348;SDS011;5729;43.570;27.826;2023-05-07T07:18:05;3.35;;;2.00;;
11348;SDS011;5729;43.570;27.826;2023-05-07T07:20:31;3.42;;;2.17;;
11348;SDS011;5729;43.570;27.826;2023-05-07T07:22:56;5.97;;;2.10;;
11348;SDS011;5729;43.570;27.826;2023-05-07T07:25:22;3.42;;;2.50;;
11348;SDS011;5729;43.570;27.826;2023-05-07T07:27:47;2.53;;;1.90;;
11348;SDS011;5729;43.570;27.826;2023-05-07T07:30:12;3.72;;;2.38;;
11348;SDS011;5729;43.570;27.826;2023-05-07T07:32:38;5.00;;;2.05;;
11348;SDS011;5729;43.570;27.826;2023-05-07T07:35:03;2.40;;;1.88;;
11348;SDS011;5729;43.570;27.826;2023-05-07T07:37:29;4.28;;;1.83;;
11348;SDS011;5729;43.570;27.826;2023-05-07T07:39:55;4.45;;;2.05;;
11348;SDS011;5729;43.570;27.826;2023-05-07T07:42:20;3.03;;;2.08;;
11348;SDS011;5729;43.570;27.826;2023-05-07T07:44:46;2.67;;;1.73;;
11348;SDS011;5729;43.570;27.826;2023-05-07T07:47:11;2.13;;;1.80;;
11348;SDS011;5729;43.570;27.826;2023-05-07T07:49:37;6.25;;;1.65;;
11348;SDS011;5729;43.570;27.826;2023-05-07T07:52:02;2.88;;;1.85;;
11348;SDS011;5729;43.570;27.826;2023-05-07T07:54:28;2.53;;;2.00;;
11348;SDS011;5729;43.570;27.826;2023-05-07T07:56:54;2.55;;;1.60;;
11348;SDS011;5729;43.570;27.826;2023-05-07T07:59:19;2.08;;;1.70;;
11348;SDS011;5729;43.570;27.826;2023-05-07T08:01:45;3.03;;;1.55;;
11348;SDS011;5729;43.570;27.826;2023-05-07T08:04:11;4.47;;;1.92;;
11348;SDS011;5729;43.570;27.826;2023-05-07T08:06:36;5.05;;;1.90;;
11348;SDS011;5729;43.570;27.826;2023-05-07T08:09:02;6.38;;;2.20;;
11348;SDS011;5729;43.570;27.826;2023-05-07T08:11:28;2.63;;;1.67;;
11348;SDS011;5729;43.570;27.826;2023-05-07T08:13:53;1.50;;;1.40;;
11348;SDS011;5729;43.570;27.826;2023-05-07T08:16:20;2.58;;;1.70;;
11348;SDS011;5729;43.570;27.826;2023-05-07T08:18:45;6.68;;;1.88;;
11348;SDS011;5729;43.570;27.826;2023-05-07T08:21:11;3.25;;;1.60;;
11348;SDS011;5729;43.570;27.826;2023-05-07T08:23:36;5.30;;;1.42;;
11348;SDS011;5729;43.570;27.826;2023-05-07T08:26:02;3.78;;;1.60;;
11348;SDS011;5729;43.570;27.826;2023-05-07T08:28:27;4.32;;;1.85;;
11348;SDS011;5729;43.570;27.826;2023-05-07T08:30:53;1.50;;;1.40;;
11348;SDS011;5729;43.570;27.826;2023-05-07T08:33:18;2.92;;;1.75;;
11348;SDS011;5729;43.570;27.826;2023-05-07T08:35:44;4.07;;;1.80;;
11348;SDS011;5729;43.570;27.826;2023-05-07T08:38:09;3.78;;;1.83;;
11348;SDS011;5729;43.570;27.826;2023-05-07T08:40:38;4.13;;;1.80;;
11348;SDS011;5729;43.570;27.826;2023-05-07T08:43:06;2.70;;;1.73;;
11348;SDS011;5729;43.570;27.826;2023-05-07T08:45:35;5.93;;;1.83;;
11348;SDS011;5729;43.570;27.826;2023-05-07T08:48:03;3.92;;;1.83;;
11348;SDS011;5729;43.570;27.826;2023-05-07T08:50:35;4.60;;;1.60;;
11348;SDS011;5729;43.570;27.826;2023-05-07T08:53:02;5.97;;;1.65;;
11348;SDS011;5729;43.570;27.826;2023-05-07T08:55:28;2.88;;;1.52;;
11348;SDS011;5729;43.570;27.826;2023-05-07T08:57:55;2.72;;;1.58;;
11348;SDS011;5729;43.570;27.826;2023-05-07T09:00:21;3.72;;;1.85;;
11348;SDS011;5729;43.570;27.826;2023-05-07T09:02:46;2.15;;;1.60;;
11348;SDS011;5729;43.570;27.826;2023-05-07T09:05:12;1.60;;;1.50;;
11348;SDS011;5729;43.570;27.826;2023-05-07T09:07:38;3.65;;;1.67;;
11348;SDS011;5729;43.570;27.826;2023-05-07T09:10:03;3.22;;;1.50;;
11348;SDS011;5729;43.570;27.826;2023-05-07T09:12:30;3.38;;;1.67;;
11348;SDS011;5729;43.570;27.826;2023-05-07T09:14:56;3.60;;;1.42;;
11348;SDS011;5729;43.570;27.826;2023-05-07T09:17:21;3.72;;;2.03;;
11348;SDS011;5729;43.570;27.826;2023-05-07T09:19:47;4.20;;;1.55;;
11348;SDS011;5729;43.570;27.826;2023-05-07T09:22:13;1.67;;;1.58;;
11348;SDS011;5729;43.570;27.826;2023-05-07T09:24:38;1.77;;;1.50;;
11348;SDS011;5729;43.570;27.826;2023-05-07T09:27:04;3.25;;;1.50;;
11348;SDS011;5729;43.570;27.826;2023-05-07T09:29:31;2.70;;;1.45;;
11348;SDS011;5729;43.570;27.826;2023-05-07T09:32:05;4.03;;;1.50;;
11348;SDS011;5729;43.570;27.826;2023-05-07T09:34:32;2.45;;;1.73;;
11348;SDS011;5729;43.570;27.826;2023-05-07T09:36:58;5.25;;;1.80;;
11348;SDS011;5729;43.570;27.826;2023-05-07T09:39:26;3.80;;;1.63;;
11348;SDS011;5729;43.570;27.826;2023-05-07T09:41:51;3.10;;;1.60;;
11348;SDS011;5729;43.570;27.826;2023-05-07T09:44:19;1.60;;;1.50;;
11348;SDS011;5729;43.570;27.826;2023-05-07T09:46:46;2.88;;;1.50;;
11348;SDS011;5729;43.570;27.826;2023-05-07T09:49:22;2.40;;;1.70;;
11348;SDS011;5729;43.570;27.826;2023-05-07T09:51:50;2.83;;;1.70;;
11348;SDS011;5729;43.570;27.826;2023-05-07T09:54:17;2.13;;;1.48;;
11348;SDS011;5729;43.570;27.826;2023-05-07T09:56:50;1.98;;;1.35;;
11348;SDS011;5729;43.570;27.826;2023-05-07T09:59:17;4.72;;;1.95;;
11348;SDS011;5729;43.570;27.826;2023-05-07T10:01:43;2.58;;;1.55;;
11348;SDS011;5729;43.570;27.826;2023-05-07T10:04:09;2.22;;;1.50;;
11348;SDS011;5729;43.570;27.826;2023-05-07T10:06:36;3.67;;;1.70;;
11348;SDS011;5729;43.570;27.826;2023-05-07T10:09:03;3.05;;;1.50;;
11348;SDS011;5729;43.570;27.826;2023-05-07T10:11:32;2.58;;;1.90;;
11348;SDS011;5729;43.570;27.826;2023-05-07T10:14:02;2.55;;;1.50;;
11348;SDS011;5729;43.570;27.826;2023-05-07T10:16:31;2.30;;;1.45;;
11348;SDS011;5729;43.570;27.826;2023-05-07T10:19:01;2.45;;;1.65;;
11348;SDS011;5729;43.570;27.826;2023-05-07T10:21:30;3.10;;;1.55;;
11348;SDS011;5729;43.570;27.826;2023-05-07T10:24:00;2.65;;;1.70;;
11348;SDS011;5729;43.570;27.826;2023-05-07T10:26:31;3.97;;;1.90;;
11348;SDS011;5729;43.570;27.826;2023-05-07T10:29:02;4.55;;;1.77;;
11348;SDS011;5729;43.570;27.826;2023-05-07T10:34:23;7.00;;;1.80;;
11348;SDS011;5729;43.570;27.826;2023-05-07T10:36:53;1.92;;;1.52;;
11348;SDS011;5729;43.570;27.826;2023-05-07T10:39:21;3.33;;;1.55;;
11348;SDS011;5729;43.570;27.826;2023-05-07T10:41:47;1.45;;;1.35;;
11348;SDS011;5729;43.570;27.826;2023-05-07T10:44:34;2.90;;;1.30;;
11348;SDS011;5729;43.570;27.826;2023-05-07T10:47:04;1.95;;;1.42;;
11348;SDS011;5729;43.570;27.826;2023-05-07T10:49:31;2.50;;;1.83;;
11348;SDS011;5729;43.570;27.826;2023-05-07T10:52:16;1.70;;;1.60;;
11348;SDS011;5729;43.570;27.826;2023-05-07T10:54:43;2.28;;;1.50;;
11348;SDS011;5729;43.570;27.826;2023-05-07T10:59:57;2.20;;;1.70;;
11348;SDS011;5729;43.570;27.826;2023-05-07T11:02:22;3.80;;;1.88;;
11348;SDS011;5729;43.570;27.826;2023-05-07T11:07:54;3.80;;;1.58;;
11348;SDS011;5729;43.570;27.826;2023-05-07T11:13:12;3.13;;;1.85;;
11348;SDS011;5729;43.570;27.826;2023-05-07T11:15:39;3.50;;;1.83;;
11348;SDS011;5729;43.570;27.826;2023-05-07T11:18:15;1.80;;;1.58;;
11348;SDS011;5729;43.570;27.826;2023-05-07T11:20:49;2.65;;;1.60;;
11348;SDS011;5729;43.570;27.826;2023-05-07T11:26:02;1.50;;;1.40;;
11348;SDS011;5729;43.570;27.826;2023-05-07T11:28:29;8.38;;;1.77;;
11348;SDS011;5729;43.570;27.826;2023-05-07T11:30:56;3.05;;;1.63;;
11348;SDS011;5729;43.570;27.826;2023-05-07T11:33:22;3.17;;;1.58;;
11348;SDS011;5729;43.570;27.826;2023-05-07T11:35:50;2.67;;;1.55;;
11348;SDS011;5729;43.570;27.826;2023-05-07T11:38:18;3.78;;;1.60;;
11348;SDS011;5729;43.570;27.826;2023-05-07T11:40:54;4.00;;;1.50;;
11348;SDS011;5729;43.570;27.826;2023-05-07T11:43:21;4.20;;;1.60;;
11348;SDS011;5729;43.570;27.826;2023-05-07T11:45:47;2.33;;;1.33;;
11348;SDS011;5729;43.570;27.826;2023-05-07T11:48:13;2.90;;;1.90;;
11348;SDS011;5729;43.570;27.826;2023-05-07T11:50:49;2.17;;;1.42;;
11348;SDS011;5729;43.570;27.826;2023-05-07T11:53:16;2.25;;;1.40;;
11348;SDS011;5729;43.570;27.826;2023-05-07T11:55:42;4.25;;;1.75;;
11348;SDS011;5729;43.570;27.826;2023-05-07T11:58:09;3.95;;;1.70;;
11348;SDS011;5729;43.570;27.826;2023-05-07T12:00:37;2.45;;;1.70;;
11348;SDS011;5729;43.570;27.826;2023-05-07T12:03:03;1.83;;;1.27;;
11348;SDS011;5729;43.570;27.826;2023-05-07T12:05:29;4.30;;;1.60;;
11348;SDS011;5729;43.570;27.826;2023-05-07T12:07:56;2.05;;;1.42;;
11348;SDS011;5729;43.570;27.826;2023-05-07T12:10:22;6.22;;;1.50;;
11348;SDS011;5729;43.570;27.826;2023-05-07T12:12:49;8.18;;;1.67;;
11348;SDS011;5729;43.570;27.826;2023-05-07T12:15:22;2.15;;;1.45;;
11348;SDS011;5729;43.570;27.826;2023-05-07T12:17:48;2.13;;;1.70;;
11348;SDS011;5729;43.570;27.826;2023-05-07T12:20:13;2.53;;;1.40;;
11348;SDS011;5729;43.570;27.826;2023-05-07T12:22:40;5.90;;;1.83;;
11348;SDS011;5729;43.570;27.826;2023-05-07T12:25:06;2.47;;;1.90;;
11348;SDS011;5729;43.570;27.826;2023-05-07T12:27:32;1.48;;;1.35;;
11348;SDS011;5729;43.570;27.826;2023-05-07T12:29:57;2.08;;;1.50;;
11348;SDS011;5729;43.570;27.826;2023-05-07T12:32:24;3.38;;;1.50;;
11348;SDS011;5729;43.570;27.826;2023-05-07T12:34:50;4.40;;;1.70;;
11348;SDS011;5729;43.570;27.826;2023-05-07T12:37:17;3.33;;;1.40;;
11348;SDS011;5729;43.570;27.826;2023-05-07T12:39:49;2.03;;;1.50;;
11348;SDS011;5729;43.570;27.826;2023-05-07T12:42:28;2.88;;;1.73;;
11348;SDS011;5729;43.570;27.826;2023-05-07T12:44:58;4.60;;;1.70;;
11348;SDS011;5729;43.570;27.826;2023-05-07T12:47:23;1.63;;;1.50;;
11348;SDS011;5729;43.570;27.826;2023-05-07T12:49:49;4.00;;;1.70;;
11348;SDS011;5729;43.570;27.826;2023-05-07T12:52:14;2.47;;;1.55;;
11348;SDS011;5729;43.570;27.826;2023-05-07T12:54:40;1.75;;;1.17;;
11348;SDS011;5729;43.570;27.826;2023-05-07T12:57:06;3.95;;;1.58;;
11348;SDS011;5729;43.570;27.826;2023-05-07T12:59:41;3.63;;;1.67;;
11348;SDS011;5729;43.570;27.826;2023-05-07T13:02:07;2.22;;;1.45;;
11348;SDS011;5729;43.570;27.826;2023-05-07T13:04:34;5.35;;;1.80;;
11348;SDS011;5729;43.570;27.826;2023-05-07T13:07:00;2.80;;;1.58;;
11348;SDS011;5729;43.570;27.826;2023-05-07T13:09:26;3.70;;;1.60;;
11348;SDS011;5729;43.570;27.826;2023-05-07T13:11:51;4.22;;;1.73;;
11348;SDS011;5729;43.570;27.826;2023-05-07T13:14:17;4.50;;;1.75;;
11348;SDS011;5729;43.570;27.826;2023-05-07T13:16:43;1.70;;;1.50;;
11348;SDS011;5729;43.570;27.826;2023-05-07T13:19:08;3.80;;;1.70;;
11348;SDS011;5729;43.570;27.826;2023-05-07T13:21:34;2.97;;;1.65;;
11348;SDS011;5729;43.570;27.826;2023-05-07T13:23:59;2.05;;;1.73;;
11348;SDS011;5729;43.570;27.826;2023-05-07T13:26:25;2.22;;;1.58;;
11348;SDS011;5729;43.570;27.826;2023-05-07T13:28:51;3.95;;;1.83;;
11348;SDS011;5729;43.570;27.826;2023-05-07T13:31:17;2.38;;;1.50;;
11348;SDS011;5729;43.570;27.826;2023-05-07T13:33:43;4.25;;;1.60;;
11348;SDS011;5729;43.570;27.826;2023-05-07T13:36:08;1.90;;;1.20;;
11348;SDS011;5729;43.570;27.826;2023-05-07T13:38:34;1.90;;;1.70;;
11348;SDS011;5729;43.570;27.826;2023-05-07T13:41:00;2.13;;;1.40;;
11348;SDS011;5729;43.570;27.826;2023-05-07T13:43:25;3.30;;;1.60;;
11348;SDS011;5729;43.570;27.826;2023-05-07T13:45:51;2.75;;;1.30;;
11348;SDS011;5729;43.570;27.826;2023-05-07T13:48:16;5.43;;;1.25;;
11348;SDS011;5729;43.570;27.826;2023-05-07T13:50:42;8.98;;;1.77;;
11348;SDS011;5729;43.570;27.826;2023-05-07T13:53:07;2.50;;;1.80;;
11348;SDS011;5729;43.570;27.826;2023-05-07T13:55:33;1.88;;;1.40;;
11348;SDS011;5729;43.570;27.826;2023-05-07T13:57:59;3.33;;;1.48;;
11348;SDS011;5729;43.570;27.826;2023-05-07T14:00:28;6.68;;;1.55;;
11348;SDS011;5729;43.570;27.826;2023-05-07T14:02:54;2.20;;;1.80;;
11348;SDS011;5729;43.570;27.826;2023-05-07T14:05:21;3.42;;;1.60;;
11348;SDS011;5729;43.570;27.826;2023-05-07T14:07:48;3.08;;;1.70;;
11348;SDS011;5729;43.570;27.826;2023-05-07T14:10:16;3.53;;;1.50;;
11348;SDS011;5729;43.570;27.826;2023-05-07T14:12:43;2.10;;;1.77;;
11348;SDS011;5729;43.570;27.826;2023-05-07T14:15:09;2.90;;;1.70;;
11348;SDS011;5729;43.570;27.826;2023-05-07T14:17:35;2.42;;;1.63;;
11348;SDS011;5729;43.570;27.826;2023-05-07T14:20:01;4.68;;;2.00;;
11348;SDS011;5729;43.570;27.826;2023-05-07T14:22:26;6.32;;;2.30;;
11348;SDS011;5729;43.570;27.826;2023-05-07T14:24:52;4.93;;;1.85;;
11348;SDS011;5729;43.570;27.826;2023-05-07T14:27:17;2.15;;;1.73;;
11348;SDS011;5729;43.570;27.826;2023-05-07T14:29:42;4.65;;;1.70;;
11348;SDS011;5729;43.570;27.826;2023-05-07T14:32:08;2.60;;;1.50;;
11348;SDS011;5729;43.570;27.826;2023-05-07T14:34:34;4.90;;;1.70;;
11348;SDS011;5729;43.570;27.826;2023-05-07T14:36:59;3.70;;;1.77;;
11348;SDS011;5729;43.570;27.826;2023-05-07T14:39:25;2.38;;;1.70;;
11348;SDS011;5729;43.570;27.826;2023-05-07T14:41:51;1.80;;;1.50;;
11348;SDS011;5729;43.570;27.826;2023-05-07T14:44:16;5.20;;;2.13;;
11348;SDS011;5729;43.570;27.826;2023-05-07T14:46:42;6.38;;;2.47;;
11348;SDS011;5729;43.570;27.826;2023-05-07T14:49:07;4.40;;;1.90;;
11348;SDS011;5729;43.570;27.826;2023-05-07T14:51:41;2.63;;;2.10;;
11348;SDS011;5729;43.570;27.826;2023-05-07T14:54:07;4.10;;;2.15;;
11348;SDS011;5729;43.570;27.826;2023-05-07T14:56:32;3.47;;;2.47;;